createdAt,value
2019-03-11T00:00:55.004Z,36.72
2019-03-11T00:15:51.132Z,36.67
2019-03-11T00:30:52.743Z,37.88
2019-03-11T00:45:51.003Z,38.82
2019-03-11T01:00:51.007Z,39.77
2019-03-11T01:15:55.697Z,40.82
2019-03-11T01:30:51.165Z,40.82
2019-03-11T01:45:51.160Z,41.43
2019-03-11T02:00:51.162Z,42.27
2019-03-11T02:15:52.529Z,42.99
2019-03-11T02:30:51.557Z,43.41
2019-03-11T02:45:51.545Z,43.71
2019-03-11T03:00:51.792Z,44.53
2019-03-11T03:15:50.619Z,44.52
2019-03-11T03:30:51.348Z,45.44
2019-03-11T03:45:50.524Z,45.51
2019-03-11T04:00:50.525Z,46.60
2019-03-11T04:15:51.029Z,47.67
2019-03-11T04:30:51.002Z,47.96
2019-03-11T04:45:55.235Z,49.06
2019-03-11T05:00:50.642Z,49.67
2019-03-11T05:15:51.072Z,49.68
2019-03-11T05:30:51.644Z,49.73
2019-03-11T05:45:51.517Z,48.40
2019-03-11T06:00:50.682Z,47.19
2019-03-11T06:15:50.905Z,47.06
2019-03-11T06:30:52.090Z,44.95
2019-03-11T06:45:52.165Z,42.02
2019-03-11T07:00:51.270Z,40.14
2019-03-11T07:15:51.689Z,37.79
2019-03-11T07:45:51.435Z,32.68
2019-03-11T08:00:54.163Z,32.51
2019-03-11T08:15:52.962Z,32.34
2019-03-11T08:30:54.668Z,31.31
2019-03-11T08:45:52.405Z,33.09
2019-03-11T09:00:52.229Z,32.72
2019-03-11T09:15:54.631Z,32.86
2019-03-11T09:30:56.947Z,30.25
2019-03-11T09:45:53.235Z,27.77
2019-03-11T10:00:58.984Z,30.09
2019-03-11T10:30:55.414Z,35.34
2019-03-11T10:45:57.760Z,36.93
2019-03-11T11:00:53.105Z,38.63
2019-03-11T11:30:51.273Z,37.73
2019-03-11T11:45:51.300Z,37.02
2019-03-11T12:00:51.320Z,37.62
2019-03-11T12:15:51.889Z,37.19
2019-03-11T12:30:51.685Z,35.78
2019-03-11T12:45:51.562Z,36.30
2019-03-11T13:00:51.517Z,36.10
2019-03-11T13:15:52.883Z,38.15
2019-03-11T13:30:50.773Z,38.72
2019-03-11T14:30:51.097Z,44.29
2019-03-11T14:45:51.428Z,45.27
2019-03-11T15:00:50.872Z,46.01
2019-03-11T15:15:51.797Z,47.40
2019-03-11T15:30:53.262Z,49.40
2019-03-11T15:45:51.255Z,50.34
2019-03-11T16:00:51.164Z,51.70
2019-03-11T16:15:51.568Z,53.87
2019-03-11T16:30:51.609Z,56.64
2019-03-11T16:45:53.705Z,59.83
2019-03-11T17:00:51.444Z,60.28
2019-03-11T17:15:50.975Z,61.77
2019-03-11T17:30:52.408Z,62.13
2019-03-11T17:45:55.573Z,63.71
2019-03-11T18:00:55.720Z,63.96
2019-03-11T18:15:53.406Z,63.86
2019-03-11T18:30:51.819Z,64.28
2019-03-11T18:45:51.029Z,64.01
2019-03-11T19:00:51.045Z,63.46
2019-03-11T19:15:51.443Z,63.62
2019-03-11T19:30:52.942Z,64.25
2019-03-11T19:45:51.967Z,65.63
2019-03-11T20:00:52.237Z,63.75
2019-03-11T20:15:53.871Z,63.96
2019-03-11T20:30:51.681Z,64.01
2019-03-11T20:45:51.539Z,63.98
2019-03-11T21:00:53.477Z,64.62
2019-03-11T21:15:51.309Z,64.48
2019-03-11T21:30:51.196Z,64.51
2019-03-11T21:45:51.170Z,65.02
2019-03-11T22:00:51.473Z,65.13
2019-03-11T22:15:51.002Z,65.70
2019-03-11T22:30:50.980Z,65.92
2019-03-11T22:45:50.903Z,66.02
2019-03-11T23:00:59.624Z,66.03
2019-03-11T23:15:51.821Z,66.18
2019-03-11T23:30:51.183Z,66.05
2019-03-11T23:45:51.244Z,66.36
